Time;durP1;ratioP1;P1;durP2;ratioP2;P2;SDS_P1;SDS_P2;PMS_P1;PMS_P2;Temp;Humidity;BMP_temperature;BMP_pressure;BME280_temperature;BME280_humidity;BME280_pressure;Samples;Min_cycle;Max_cycle;Signal;HPM_P1;HPM_P2
2022/01/07 00:02:02;;;;;;;11.80;4.47;;;;;;;1.24;83.69;100958.56;5041741;28;20234;-80
2022/01/07 00:04:31;;;;;;;5.47;3.87;;;;;;;1.33;83.19;100974.25;5041110;28;20214;-80
2022/01/07 00:06:57;;;;;;;7.63;3.63;;;;;;;1.35;83.37;100974.28;5040972;28;20206;-80
2022/01/07 00:09:24;;;;;;;11.40;3.70;;;;;;;1.26;84.23;100958.59;5040608;28;20210;-80
2022/01/07 00:11:50;;;;;;;6.57;4.37;;;;;;;1.31;83.83;100954.44;5041440;28;20249;-80
2022/01/07 00:14:17;;;;;;;9.07;4.53;;;;;;;1.31;83.42;100957.00;5041780;28;20244;-80
2022/01/07 00:16:43;;;;;;;8.13;4.20;;;;;;;1.24;83.32;100948.28;5061561;28;20217;-79
2022/01/07 00:19:11;;;;;;;9.37;3.70;;;;;;;1.25;84.06;100951.69;5061068;28;20210;-79
2022/01/07 00:21:37;;;;;;;9.40;4.40;;;;;;;1.22;83.49;100951.63;5060945;28;20229;-80
2022/01/07 00:24:04;;;;;;;6.97;4.17;;;;;;;1.17;84.61;100951.53;5060294;28;20213;-80
2022/01/07 00:26:31;;;;;;;5.73;3.87;;;;;;;1.10;84.18;100942.75;5040948;28;20206;-79
2022/01/07 00:28:57;;;;;;;8.57;3.77;;;;;;;1.06;84.76;100940.94;5042217;28;20198;-79
2022/01/07 00:31:23;;;;;;;4.97;3.37;;;;;;;0.99;85.12;100915.88;5042009;28;20284;-80
2022/01/07 00:33:50;;;;;;;6.53;4.10;;;;;;;1.05;84.45;100913.50;5040616;28;20206;-80
2022/01/07 00:36:17;;;;;;;10.27;4.40;;;;;;;1.01;84.48;100919.34;5041275;28;20252;-79
2022/01/07 00:38:44;;;;;;;9.50;4.40;;;;;;;0.98;84.70;100909.84;5040227;28;20233;-79
2022/01/07 00:41:10;;;;;;;7.53;3.27;;;;;;;1.03;83.70;100922.88;5039928;28;20253;-79
2022/01/07 00:43:36;;;;;;;10.63;4.30;;;;;;;1.09;84.35;100919.56;5040726;28;20194;-80
2022/01/07 00:46:03;;;;;;;11.03;4.60;;;;;;;1.13;84.62;100914.56;5040592;28;20205;-80
2022/01/07 00:48:30;;;;;;;5.37;3.70;;;;;;;1.15;84.14;100914.59;5039711;28;20206;-80
2022/01/07 00:50:56;;;;;;;5.47;4.10;;;;;;;1.16;83.73;100918.91;5039510;28;20241;-80
2022/01/07 00:53:24;;;;;;;12.83;4.10;;;;;;;1.20;84.06;100915.59;5053539;28;20742;-80
2022/01/07 00:55:50;;;;;;;5.53;3.50;;;;;;;1.22;84.79;100911.34;5055333;28;20205;-80
2022/01/07 00:58:16;;;;;;;5.60;3.60;;;;;;;1.10;83.73;100922.19;5059772;28;20209;-80
2022/01/07 01:00:43;;;;;;;7.23;3.97;;;;;;;1.10;84.38;100909.31;5059233;28;20287;-80
2022/01/07 01:03:09;;;;;;;8.30;3.70;;;;;;;1.12;84.23;100907.66;5058644;28;20213;-80
2022/01/07 01:05:36;;;;;;;7.30;3.97;;;;;;;1.21;84.45;100901.03;5040721;28;20680;-80
2022/01/07 01:08:03;;;;;;;6.20;3.57;;;;;;;1.14;84.58;100897.44;5039769;28;20205;-80
2022/01/07 01:10:31;;;;;;;10.13;4.30;;;;;;;1.14;84.27;100888.00;5039566;28;20712;-80
2022/01/07 01:12:57;;;;;;;7.97;4.20;;;;;;;1.17;84.33;100888.09;5039330;28;20206;-80
2022/01/07 01:15:26;;;;;;;10.70;3.20;;;;;;;1.08;84.72;100874.13;5039972;28;20766;-80
2022/01/07 01:17:54;;;;;;;7.13;3.40;;;;;;;1.05;85.13;100866.31;5039812;28;20210;-80
2022/01/07 01:20:20;;;;;;;5.53;3.90;;;;;;;1.04;84.74;100859.47;5038880;28;20234;-80
2022/01/07 01:22:47;;;;;;;6.73;3.43;;;;;;;0.99;84.65;100854.19;5051762;28;20198;-79
2022/01/07 01:25:14;;;;;;;13.83;3.90;;;;;;;1.04;84.95;100844.03;5051205;28;20260;-80
2022/01/07 01:27:42;;;;;;;8.43;3.80;;;;;;;1.07;85.69;100837.28;5058939;28;20617;-80
2022/01/07 01:30:11;;;;;;;5.87;3.63;;;;;;;1.03;85.76;100832.00;5059080;28;20272;-80
2022/01/07 01:32:38;;;;;;;5.07;3.60;;;;;;;1.05;85.76;100820.94;5060128;28;20235;-80
2022/01/07 01:35:07;;;;;;;8.57;3.43;;;;;;;1.10;85.58;100806.50;5059641;28;20205;-80
2022/01/07 01:37:33;;;;;;;7.17;4.17;;;;;;;1.09;85.76;100798.75;5059437;28;20209;-80
2022/01/07 01:40:00;;;;;;;10.43;4.20;;;;;;;0.84;86.84;100792.13;5058806;28;20643;-80
2022/01/07 01:42:27;;;;;;;14.10;4.23;;;;;;;0.92;87.12;100778.63;5058854;28;20209;-80
2022/01/07 01:44:54;;;;;;;6.03;4.33;;;;;;;0.92;87.40;100765.78;5054063;28;20213;-80
2022/01/07 01:47:21;;;;;;;9.77;4.17;;;;;;;0.97;86.47;100766.78;5039345;28;20205;-80
2022/01/07 01:49:49;;;;;;;8.63;4.43;;;;;;;0.99;87.19;100769.34;5038073;28;20218;-80
2022/01/07 01:52:15;;;;;;;9.37;4.47;;;;;;;1.10;85.98;100769.66;5047270;28;20218;-80
2022/01/07 01:54:45;;;;;;;8.70;4.10;;;;;;;1.14;86.36;100772.31;5051519;28;20193;-79
2022/01/07 01:57:11;;;;;;;9.13;5.20;;;;;;;1.15;86.32;100770.59;5061506;28;20206;-80
2022/01/07 01:59:38;;;;;;;6.87;4.10;;;;;;;1.24;86.27;100749.41;5058785;28;20212;-80
2022/01/07 02:02:06;;;;;;;8.63;4.60;;;;;;;1.34;86.19;100747.09;5059648;28;20225;-80
2022/01/07 02:04:33;;;;;;;5.43;3.57;;;;;;;1.38;85.85;100750.59;5057379;28;20239;-80
2022/01/07 02:07:00;;;;;;;7.37;3.57;;;;;;;1.46;85.57;100761.94;5038881;28;20610;-81
2022/01/07 02:09:34;;;;;;;11.13;3.97;;;;;;;1.54;85.53;100759.53;5037729;28;20205;-80
2022/01/07 02:12:00;;;;;;;8.47;3.97;;;;;;;1.48;85.13;100769.69;5038648;28;20217;-81
2022/01/07 02:14:28;;;;;;;5.77;3.20;;;;;;;1.54;84.67;100770.69;5040374;28;20202;-80
2022/01/07 02:16:54;;;;;;;8.00;4.17;;;;;;;1.58;84.66;100769.06;5059719;28;20209;-79
2022/01/07 02:19:21;;;;;;;5.83;2.83;;;;;;;1.70;84.79;100771.91;5058857;28;20209;-80
2022/01/07 02:21:49;;;;;;;8.60;4.37;;;;;;;1.71;83.92;100783.09;5058686;28;20241;-80
2022/01/07 02:24:16;;;;;;;7.47;3.47;;;;;;;1.74;84.11;100775.44;5050131;28;20626;-80
2022/01/07 02:26:42;;;;;;;8.23;3.43;;;;;;;1.76;83.47;100784.06;5058573;28;20263;-81
2022/01/07 02:29:09;;;;;;;6.73;3.87;;;;;;;1.77;82.66;100811.53;5059045;28;20209;-79
2022/01/07 02:31:35;;;;;;;6.60;3.60;;;;;;;1.85;83.00;100802.28;5059499;28;20225;-81
2022/01/07 02:34:02;;;;;;;5.10;3.57;;;;;;;1.88;82.99;100793.75;5059088;28;20258;-81
2022/01/07 02:36:28;;;;;;;8.60;4.03;;;;;;;1.82;82.34;100804.78;5060102;28;20206;-81
2022/01/07 02:38:55;;;;;;;4.90;3.27;;;;;;;1.89;82.00;100805.81;5059103;28;20217;-80
2022/01/07 02:41:23;;;;;;;6.70;3.30;;;;;;;1.68;82.16;100801.03;5058921;28;20256;-80
2022/01/07 02:43:50;;;;;;;8.47;3.63;;;;;;;1.72;82.19;100795.13;5059027;28;20209;-81
2022/01/07 02:46:16;;;;;;;5.33;3.67;;;;;;;1.64;82.50;100801.78;5058108;28;20221;-80
2022/01/07 02:48:42;;;;;;;4.73;3.43;;;;;;;1.61;81.39;100812.03;5059611;28;20620;-80
2022/01/07 02:51:09;;;;;;;7.83;4.50;;;;;;;1.73;82.00;100809.72;5058904;28;20237;-81
2022/01/07 02:53:35;;;;;;;7.83;3.27;;;;;;;1.78;82.01;100787.53;5054510;28;20249;-81
2022/01/07 02:56:03;;;;;;;7.27;3.63;;;;;;;1.76;81.46;100790.09;5056181;28;20212;-80
2022/01/07 02:58:29;;;;;;;7.43;3.97;;;;;;;1.78;82.56;100779.81;5059054;28;20224;-80
2022/01/07 03:00:56;;;;;;;7.93;3.83;;;;;;;1.79;81.75;100773.84;5058915;28;20653;-81
2022/01/07 03:03:22;;;;;;;11.53;3.60;;;;;;;1.83;82.54;100773.06;5058962;28;20206;-81
2022/01/07 03:05:49;;;;;;;10.07;4.13;;;;;;;1.72;81.85;100770.25;5057071;28;20198;-81
2022/01/07 03:08:15;;;;;;;9.90;4.10;;;;;;;1.78;82.01;100775.56;5059139;28;20205;-80
2022/01/07 03:10:41;;;;;;;9.40;3.93;;;;;;;1.88;82.45;100773.16;5058826;28;20771;-81
2022/01/07 03:13:09;;;;;;;9.50;4.43;;;;;;;1.88;81.75;100768.88;5062723;28;20267;-81
2022/01/07 03:15:38;;;;;;;10.47;4.50;;;;;;;1.83;81.35;100767.06;5062603;28;20211;-81
2022/01/07 03:18:05;;;;;;;6.20;3.33;;;;;;;1.83;82.19;100749.91;5062789;28;20239;-81
2022/01/07 03:20:37;;;;;;;6.30;3.53;;;;;;;1.89;81.29;100742.31;5062237;28;20255;-80
2022/01/07 03:23:04;;;;;;;6.70;3.70;;;;;;;1.91;81.58;100730.34;5060865;28;20205;-81
2022/01/07 03:25:30;;;;;;;12.17;3.87;;;;;;;1.91;82.23;100724.34;5054175;28;20263;-80
2022/01/07 03:27:57;;;;;;;5.27;3.80;;;;;;;1.92;81.96;100723.47;5061828;28;20213;-82
2022/01/07 03:30:24;;;;;;;5.97;3.77;;;;;;;1.94;81.28;100719.22;5061137;28;20252;-81
2022/01/07 03:32:51;;;;;;;6.33;3.33;;;;;;;1.92;82.04;100718.34;5061682;28;20737;-81
2022/01/07 03:35:18;;;;;;;7.33;3.47;;;;;;;1.99;81.17;100722.78;5061844;28;20236;-81
2022/01/07 03:37:45;;;;;;;8.43;3.80;;;;;;;2.02;81.58;100724.53;5062040;28;20213;-81
2022/01/07 03:40:13;;;;;;;11.70;3.83;;;;;;;1.90;79.32;100748.31;5060234;28;20225;-80
2022/01/07 03:42:39;;;;;;;6.93;3.10;;;;;;;1.87;80.10;100749.13;5061540;28;20205;-81
2022/01/07 03:45:08;;;;;;;3.90;2.63;;;;;;;1.88;80.42;100734.56;5062404;28;20671;-81
2022/01/07 03:47:35;;;;;;;7.03;3.57;;;;;;;1.89;80.81;100734.59;5061092;28;20740;-81
2022/01/07 03:50:02;;;;;;;7.07;3.37;;;;;;;1.78;82.02;100713.78;5061082;28;20244;-81
2022/01/07 03:52:28;;;;;;;8.10;3.73;;;;;;;1.73;80.75;100693.94;5061422;28;20243;-80
2022/01/07 03:54:55;;;;;;;4.67;3.90;;;;;;;1.83;81.46;100690.72;5052596;28;20228;-81
2022/01/07 03:57:21;;;;;;;6.53;3.90;;;;;;;1.90;81.64;100696.84;5061018;28;20236;-81
2022/01/07 03:59:50;;;;;;;8.03;4.07;;;;;;;1.91;81.83;100685.72;5060272;28;20201;-81
2022/01/07 04:02:16;;;;;;;10.20;4.40;;;;;;;1.92;81.46;100695.16;5060686;28;20221;-80
2022/01/07 04:04:44;;;;;;;10.47;4.23;;;;;;;1.91;81.27;100701.16;5060909;28;20252;-81
2022/01/07 04:07:11;;;;;;;6.23;3.90;;;;;;;1.97;82.14;100691.84;5050892;28;20202;-81
2022/01/07 04:09:38;;;;;;;7.97;4.50;;;;;;;2.08;81.89;100683.47;5040387;28;20229;-80
2022/01/07 04:12:05;;;;;;;6.63;4.57;;;;;;;1.94;80.91;100686.66;5040859;28;20226;-81
2022/01/07 04:14:31;;;;;;;9.63;4.00;;;;;;;1.85;80.10;100701.03;5042118;28;20206;-81
2022/01/07 04:16:59;;;;;;;7.40;4.23;;;;;;;1.89;81.02;100695.97;5060875;28;20231;-81
2022/01/07 04:19:26;;;;;;;5.17;3.90;;;;;;;1.90;81.25;100691.69;5060462;28;20270;-81
2022/01/07 04:21:54;;;;;;;10.73;4.33;;;;;;;1.92;81.99;100677.16;5059680;28;20233;-82
2022/01/07 04:24:21;;;;;;;7.57;4.97;;;;;;;1.85;80.83;100686.47;5050414;28;20251;-81
2022/01/07 04:26:47;;;;;;;7.70;4.60;;;;;;;1.86;80.86;100687.31;5057974;28;20205;-81
2022/01/07 04:29:13;;;;;;;7.63;4.70;;;;;;;1.91;81.96;100673.72;5040165;28;20213;-81
2022/01/07 04:31:40;;;;;;;5.07;4.20;;;;;;;1.85;81.09;100677.88;5039197;28;20295;-80
2022/01/07 04:34:06;;;;;;;11.57;4.77;;;;;;;1.83;80.61;100669.25;5039687;28;20210;-80
2022/01/07 04:36:33;;;;;;;7.97;4.50;;;;;;;1.87;81.75;100661.63;5038951;28;20543;-81
2022/01/07 04:39:01;;;;;;;10.30;4.43;;;;;;;1.82;80.17;100660.66;5038952;28;20228;-81
2022/01/07 04:41:27;;;;;;;6.13;4.17;;;;;;;1.89;80.43;100654.78;5038532;28;20230;-80
2022/01/07 04:43:53;;;;;;;5.80;3.50;;;;;;;1.94;80.53;100657.44;5038479;28;20863;-80
2022/01/07 04:46:20;;;;;;;12.07;5.30;;;;;;;1.85;80.98;100658.16;5038671;28;20688;-81
2022/01/07 04:48:46;;;;;;;8.57;4.87;;;;;;;1.89;80.43;100648.78;5039470;28;20206;-80
2022/01/07 04:51:12;;;;;;;6.43;4.57;;;;;;;1.86;80.59;100665.00;5065182;22;20232;-82
2022/01/07 04:53:39;;;;;;;7.67;4.60;;;;;;;1.92;80.72;100657.44;5091614;28;20283;-83
2022/01/07 04:56:06;;;;;;;4.73;4.33;;;;;;;1.86;80.19;100666.72;5105750;28;20188;-82
2022/01/07 04:58:33;;;;;;;6.80;4.40;;;;;;;1.84;80.45;100668.41;5111572;28;20192;-82
2022/01/07 05:00:59;;;;;;;5.93;4.20;;;;;;;1.94;81.23;100654.88;5104244;28;20233;-83
2022/01/07 05:03:25;;;;;;;9.97;5.00;;;;;;;1.90;80.45;100664.28;5078879;28;20205;-82
2022/01/07 05:06:02;;;;;;;6.97;4.40;;;;;;;1.91;79.54;100662.56;5074043;28;20204;-82
2022/01/07 05:08:29;;;;;;;7.83;4.40;;;;;;;1.94;80.02;100660.03;5074372;28;20185;-81
2022/01/07 05:10:55;;;;;;;8.83;3.97;;;;;;;2.00;79.58;100662.72;5073827;28;20221;-82
2022/01/07 05:13:23;;;;;;;10.27;4.07;;;;;;;1.98;79.24;100664.38;5074662;28;20402;-83
2022/01/07 05:15:49;;;;;;;11.33;4.23;;;;;;;2.05;79.98;100660.25;5074255;28;20212;-81
2022/01/07 05:18:15;;;;;;;9.43;4.00;;;;;;;1.96;79.91;100672.09;5074709;28;20566;-83
2022/01/07 05:20:42;;;;;;;5.73;4.00;;;;;;;2.04;79.45;100661.94;5073619;28;20779;-81
2022/01/07 05:23:08;;;;;;;8.20;4.27;;;;;;;2.11;80.33;100645.78;5074097;28;20196;-82
2022/01/07 05:25:35;;;;;;;7.07;4.93;;;;;;;2.17;80.25;100652.75;5073343;28;20258;-81
2022/01/07 05:28:01;;;;;;;7.00;4.00;;;;;;;2.10;78.87;100679.22;5074168;28;20200;-81
2022/01/07 05:30:29;;;;;;;9.23;3.73;;;;;;;2.21;79.71;100653.69;5073293;28;20206;-80
2022/01/07 05:32:55;;;;;;;6.90;4.07;;;;;;;2.21;79.14;100672.56;5073768;28;20207;-81
2022/01/07 05:35:25;;;;;;;5.80;4.30;;;;;;;2.22;78.98;100666.59;5073846;28;20266;-80
2022/01/07 05:37:52;;;;;;;6.97;4.23;;;;;;;2.23;79.66;100649.44;5073470;28;20201;-82
2022/01/07 05:40:18;;;;;;;7.70;4.00;;;;;;;2.34;79.62;100642.78;5072974;28;20196;-79
2022/01/07 05:42:44;;;;;;;5.17;3.90;;;;;;;2.32;79.69;100645.31;5073584;28;20258;-81
2022/01/07 05:45:11;;;;;;;6.07;4.57;;;;;;;2.37;79.39;100640.22;5073822;28;20209;-81
2022/01/07 05:47:39;;;;;;;9.13;5.00;;;;;;;2.23;77.85;100665.75;5074116;28;20269;-81
2022/01/07 05:50:07;;;;;;;5.67;4.40;;;;;;;2.32;78.40;100655.63;5072944;28;20258;-81
2022/01/07 05:52:33;;;;;;;9.97;4.40;;;;;;;2.24;78.17;100652.03;5073463;28;20225;-81
2022/01/07 05:55:00;;;;;;;9.20;4.50;;;;;;;2.25;78.65;100651.19;5073456;28;20200;-80
2022/01/07 05:57:27;;;;;;;11.37;4.80;;;;;;;2.26;78.74;100636.59;5073929;28;20205;-82
2022/01/07 05:59:54;;;;;;;9.63;4.27;;;;;;;2.32;79.55;100614.41;5072942;28;20671;-82
2022/01/07 06:02:20;;;;;;;5.73;3.87;;;;;;;2.37;78.67;100606.75;5073384;28;20298;-81
2022/01/07 06:04:48;;;;;;;5.70;4.80;;;;;;;2.33;78.75;100605.81;5073633;28;20421;-81
2022/01/07 06:07:14;;;;;;;4.70;3.80;;;;;;;2.30;78.72;100607.47;5073292;28;20208;-81
2022/01/07 06:09:41;;;;;;;8.80;5.33;;;;;;;2.22;78.74;100597.06;5073672;28;20280;-81
2022/01/07 06:12:08;;;;;;;7.53;4.10;;;;;;;2.21;79.15;100603.03;5072445;28;20469;-81
2022/01/07 06:14:34;;;;;;;5.70;4.67;;;;;;;2.23;80.03;100593.63;5072310;28;20197;-81
2022/01/07 06:17:01;;;;;;;5.73;4.63;;;;;;;2.06;79.43;100590.78;5071837;28;20250;-81
2022/01/07 06:19:27;;;;;;;7.33;4.50;;;;;;;2.17;79.52;100580.66;5073064;28;20200;-80
2022/01/07 06:21:55;;;;;;;6.60;5.00;;;;;;;2.08;79.53;100577.91;5072981;28;20278;-80
2022/01/07 06:24:21;;;;;;;10.10;4.93;;;;;;;2.13;80.00;100574.56;5072949;28;20721;-82
2022/01/07 06:26:47;;;;;;;6.10;4.17;;;;;;;2.12;80.55;100566.81;5073823;28;20590;-81
2022/01/07 06:29:14;;;;;;;10.55;5.80;;;;;;;2.18;80.67;100564.34;5071436;28;20879;-82
2022/01/07 06:31:40;;;;;;;5.67;4.83;;;;;;;2.30;80.55;100550.81;5072421;28;20212;-82
2022/01/07 06:34:06;;;;;;;7.57;4.30;;;;;;;2.35;80.08;100565.50;5071811;28;20205;-81
2022/01/07 06:36:33;;;;;;;12.97;8.83;;;;;;;2.30;80.54;100561.09;5072464;28;20200;-82
2022/01/07 06:39:01;;;;;;;7.10;4.47;;;;;;;2.24;80.71;100551.59;5072666;28;20198;-83
2022/01/07 06:41:27;;;;;;;7.23;4.80;;;;;;;2.16;81.08;100532.56;5073061;28;20228;-80
2022/01/07 06:43:53;;;;;;;7.27;4.67;;;;;;;1.99;82.38;100506.53;5072677;28;20198;-81
2022/01/07 06:46:20;;;;;;;8.93;5.30;;;;;;;1.82;83.14;100497.66;5073940;28;20205;-82
2022/01/07 06:48:46;;;;;;;6.83;5.03;;;;;;;1.82;84.16;100490.78;5076300;28;20249;-81
2022/01/07 06:51:13;;;;;;;6.80;5.30;;;;;;;1.89;83.97;100468.63;5082962;28;20274;-82
2022/01/07 06:53:39;;;;;;;7.00;5.60;;;;;;;1.83;84.33;100450.50;5080107;28;20192;-81
2022/01/07 06:56:07;;;;;;;7.03;5.10;;;;;;;1.84;84.75;100441.91;5082217;28;20201;-81
2022/01/07 06:58:33;;;;;;;7.73;5.97;;;;;;;1.70;86.60;100415.97;5073617;28;20599;-81
2022/01/07 07:01:00;;;;;;;8.07;6.17;;;;;;;1.61;88.04;100372.09;5075830;28;20225;-81
2022/01/07 07:03:26;;;;;;;7.33;6.23;;;;;;;1.55;88.08;100347.13;5074281;28;20229;-81
2022/01/07 07:05:52;;;;;;;6.17;5.57;;;;;;;1.55;88.97;100318.84;5074722;28;20631;-81
2022/01/07 07:08:19;;;;;;;9.40;6.40;;;;;;;1.45;89.21;100306.66;5076960;28;20197;-78
2022/01/07 07:10:45;;;;;;;7.23;6.37;;;;;;;1.34;89.85;100270.47;5078832;28;20224;-81
2022/01/07 07:13:13;;;;;;;9.37;6.40;;;;;;;1.36;91.59;100241.38;5081204;28;20223;-80
2022/01/07 07:15:39;;;;;;;8.83;7.00;;;;;;;1.31;91.85;100240.47;5079544;28;20272;-80
2022/01/07 07:18:06;;;;;;;8.00;5.87;;;;;;;1.46;91.29;100229.50;5077155;28;20663;-80
2022/01/07 07:20:32;;;;;;;9.10;6.10;;;;;;;1.50;91.33;100225.28;5080686;28;20197;-78
2022/01/07 07:22:58;;;;;;;8.57;5.80;;;;;;;1.51;91.24;100222.75;5087360;28;20224;-79
2022/01/07 07:25:25;;;;;;;9.63;6.20;;;;;;;1.44;92.01;100214.91;5077433;28;20193;-80
2022/01/07 07:27:52;;;;;;;8.43;7.10;;;;;;;1.44;92.01;100220.91;5081110;28;20733;-77
2022/01/07 07:30:19;;;;;;;10.83;6.90;;;;;;;1.38;92.51;100220.81;5077572;28;20484;-77
2022/01/07 07:32:47;;;;;;;7.97;6.57;;;;;;;1.32;92.09;100201.03;5083074;28;20200;-81
2022/01/07 07:37:54;;;;;;;7.83;6.90;;;;;;;1.28;93.63;100170.97;5077966;28;20204;-81
2022/01/07 07:40:20;;;;;;;9.47;6.77;;;;;;;1.36;93.55;100169.38;5075612;28;20200;-79
2022/01/07 07:42:47;;;;;;;10.63;6.37;;;;;;;1.36;93.66;100171.09;5070677;28;20634;-81
2022/01/07 07:45:13;;;;;;;8.00;5.83;;;;;;;1.42;93.86;100168.59;5077205;28;20623;-79
2022/01/07 07:47:42;;;;;;;9.23;6.17;;;;;;;1.46;93.16;100174.66;5078369;28;20200;-81
2022/01/07 07:50:10;;;;;;;5.60;5.10;;;;;;;1.31;92.81;100180.44;5073143;28;20272;-80
2022/01/07 07:52:36;;;;;;;7.43;6.20;;;;;;;1.35;93.59;100171.94;5075856;28;20235;-81
2022/01/07 07:55:03;;;;;;;7.13;6.43;;;;;;;1.33;93.71;100159.06;5075885;28;20737;-80
2022/01/07 07:57:29;;;;;;;8.67;5.63;;;;;;;1.38;93.18;100148.81;5075730;28;20200;-78
2022/01/07 07:59:55;;;;;;;6.10;5.53;;;;;;;1.33;94.24;100153.91;5075790;28;20263;-81
2022/01/07 08:02:22;;;;;;;9.00;6.03;;;;;;;1.30;93.38;100148.72;5075071;28;20282;-81
2022/01/07 08:04:50;;;;;;;7.33;5.90;;;;;;;1.27;94.00;100147.81;5072100;28;20807;-80
2022/01/07 08:07:17;;;;;;;6.53;5.87;;;;;;;1.30;93.45;100150.44;5075003;28;20204;-78
2022/01/07 08:09:44;;;;;;;5.10;4.70;;;;;;;1.25;93.17;100152.06;5072626;28;20201;-81
2022/01/07 08:12:19;;;;;;;5.83;5.17;;;;;;;1.37;93.08;100150.53;5075808;28;20240;-81
2022/01/07 08:17:29;;;;;;;4.77;4.37;;;;;;;1.43;92.60;100162.63;5092527;28;20204;-79
2022/01/07 08:19:57;;;;;;;6.83;5.40;;;;;;;1.49;92.69;100175.56;5094726;28;20187;-79
2022/01/07 08:22:23;;;;;;;5.50;4.80;;;;;;;1.44;92.18;100179.75;5089901;28;20228;-81
2022/01/07 08:24:51;;;;;;;4.90;4.20;;;;;;;1.55;92.06;100188.50;5086260;28;20201;-82
2022/01/07 08:27:17;;;;;;;6.27;5.47;;;;;;;1.68;92.83;100184.38;5077366;28;20821;-80
2022/01/07 08:29:43;;;;;;;5.83;5.17;;;;;;;1.53;91.92;100187.63;5074100;28;20193;-81
2022/01/07 08:34:58;;;;;;;6.37;5.00;;;;;;;1.69;91.71;100192.97;5076170;28;20288;-81
2022/01/07 08:37:29;;;;;;;4.57;4.10;;;;;;;1.75;91.81;100198.19;5073299;28;20201;-82
2022/01/07 08:40:11;;;;;;;5.70;5.10;;;;;;;1.74;91.18;100211.91;5077373;28;20197;-82
2022/01/07 08:42:39;;;;;;;4.77;4.30;;;;;;;1.67;90.57;100213.53;5078277;28;20225;-81
2022/01/07 08:45:07;;;;;;;5.10;4.53;;;;;;;1.65;91.16;100215.22;5082031;28;20205;-82
2022/01/07 08:47:33;;;;;;;4.87;4.47;;;;;;;1.70;91.36;100197.25;5078299;28;20208;-82
2022/01/07 08:50:01;;;;;;;5.53;4.67;;;;;;;1.68;90.91;100204.94;5077035;28;20200;-81
2022/01/07 08:52:27;;;;;;;5.50;4.87;;;;;;;1.63;90.94;100200.63;5074492;28;20225;-80
2022/01/07 08:54:54;;;;;;;6.90;5.10;;;;;;;1.72;90.42;100209.28;5076369;28;20197;-80
2022/01/07 08:57:21;;;;;;;5.60;5.10;;;;;;;1.78;90.29;100208.50;5075585;28;20259;-80
2022/01/07 08:59:49;;;;;;;4.90;4.40;;;;;;;1.84;90.74;100218.88;5075169;28;20211;-79
2022/01/07 09:02:15;;;;;;;6.20;4.10;;;;;;;1.87;89.37;100243.81;5074480;28;20224;-79
2022/01/07 09:04:43;;;;;;;5.57;5.07;;;;;;;1.90;89.96;100254.13;5072821;28;20250;-79
2022/01/07 09:07:11;;;;;;;5.10;4.60;;;;;;;2.03;89.08;100247.44;5075478;28;20197;-81
2022/01/07 09:09:37;;;;;;;11.37;9.17;;;;;;;2.06;89.00;100262.91;5074519;28;20208;-80
2022/01/07 09:12:04;;;;;;;5.73;5.13;;;;;;;1.79;88.22;100288.31;5074938;28;20213;-80
2022/01/07 09:14:31;;;;;;;5.27;4.77;;;;;;;1.89;88.69;100273.00;5075492;28;20197;-79
2022/01/07 09:16:57;;;;;;;5.40;5.00;;;;;;;2.02;89.29;100280.03;5074825;28;20663;-80
2022/01/07 09:19:25;;;;;;;7.10;5.93;;;;;;;2.02;88.79;100282.59;5074782;28;20270;-80
2022/01/07 09:21:51;;;;;;;5.03;4.63;;;;;;;1.99;89.23;100280.88;5074166;28;20613;-79
2022/01/07 09:24:19;;;;;;;5.33;4.83;;;;;;;2.13;88.88;100282.75;5074648;28;20220;-81
2022/01/07 09:26:46;;;;;;;6.43;5.20;;;;;;;2.18;88.62;100275.94;5074858;28;20201;-79
2022/01/07 09:29:12;;;;;;;5.00;4.50;;;;;;;2.23;88.33;100269.16;5074130;28;20197;-79
2022/01/07 09:31:38;;;;;;;4.80;4.40;;;;;;;2.33;88.70;100265.84;5073916;28;20250;-79
2022/01/07 09:34:06;;;;;;;5.10;4.50;;;;;;;2.37;88.12;100275.31;5074725;28;20243;-80
2022/01/07 09:36:32;;;;;;;5.53;4.80;;;;;;;2.19;86.88;100306.88;5073704;28;20193;-80
2022/01/07 09:38:59;;;;;;;5.83;5.23;;;;;;;2.16;87.15;100305.97;5074809;28;20197;-82
2022/01/07 09:41:26;;;;;;;5.03;4.53;;;;;;;2.29;87.48;100300.13;5073639;28;20241;-80
2022/01/07 09:43:53;;;;;;;5.83;4.83;;;;;;;2.24;86.72;100311.22;5072448;28;20232;-80
2022/01/07 09:46:19;;;;;;;5.50;4.77;;;;;;;2.24;86.95;100306.06;5074195;28;20262;-80
2022/01/07 09:48:46;;;;;;;5.30;4.80;;;;;;;2.11;87.14;100323.94;5074153;28;20547;-80
2022/01/07 09:51:16;;;;;;;8.03;5.03;;;;;;;2.16;87.26;100311.09;5072217;28;20240;-80
2022/01/07 09:53:43;;;;;;;6.23;5.63;;;;;;;2.30;87.27;100308.72;5072525;28;20189;-81
2022/01/07 09:56:10;;;;;;;6.60;6.00;;;;;;;2.33;87.63;100299.31;5074122;28;20656;-81
2022/01/07 09:58:39;;;;;;;4.93;4.43;;;;;;;2.12;86.94;100322.22;5071884;28;20265;-82
2022/01/07 10:01:10;;;;;;;4.93;4.50;;;;;;;2.10;88.02;100322.22;5077625;28;20252;-80
2022/01/07 10:03:38;;;;;;;5.10;4.10;;;;;;;2.09;87.81;100311.88;5078849;28;20221;-81
2022/01/07 10:06:19;;;;;;;4.63;4.23;;;;;;;2.06;87.80;100301.53;5075156;28;20203;-80
2022/01/07 10:09:00;;;;;;;6.73;4.53;;;;;;;2.22;88.46;100298.34;5073224;28;20197;-81
2022/01/07 10:11:26;;;;;;;5.00;4.40;;;;;;;2.18;88.29;100293.97;5071882;28;20699;-79
2022/01/07 10:14:17;;;;;;;4.60;4.20;;;;;;;2.25;88.00;100276.91;5073678;28;20192;-80
2022/01/07 10:16:52;;;;;;;6.73;4.17;;;;;;;2.18;88.27;100288.81;5074512;28;20227;-80
2022/01/07 10:19:32;;;;;;;5.87;4.50;;;;;;;2.25;88.34;100287.19;5074649;28;20363;-81
2022/01/07 10:22:00;;;;;;;4.97;4.47;;;;;;;2.13;88.04;100287.91;5076765;28;20327;-80
2022/01/07 10:24:26;;;;;;;5.27;4.77;;;;;;;2.26;88.87;100266.63;5076863;28;20239;-81
2022/01/07 10:27:13;;;;;;;4.80;4.33;;;;;;;2.16;88.35;100260.50;5078531;28;20204;-80
2022/01/07 10:29:43;;;;;;;5.90;4.37;;;;;;;2.25;88.99;100236.56;5075628;28;20200;-80
2022/01/07 10:32:24;;;;;;;5.40;4.40;;;;;;;2.30;89.37;100214.31;5076257;28;20768;-80
2022/01/07 10:35:09;;;;;;;4.50;4.10;;;;;;;2.37;89.65;100218.66;5077114;28;20220;-81
2022/01/07 10:37:37;;;;;;;4.77;4.17;;;;;;;2.38;88.93;100224.69;5076323;28;20201;-81
2022/01/07 10:40:21;;;;;;;4.90;4.40;;;;;;;2.50;89.05;100217.09;5078012;28;20255;-81
2022/01/07 10:42:48;;;;;;;4.40;3.77;;;;;;;2.40;88.57;100241.03;5078640;28;20258;-82
2022/01/07 10:45:15;;;;;;;4.30;3.90;;;;;;;2.51;88.60;100235.97;5079058;28;20214;-81
2022/01/07 10:47:42;;;;;;;4.57;3.97;;;;;;;2.42;88.25;100236.75;5080055;28;20216;-81
2022/01/07 10:50:15;;;;;;;4.60;4.20;;;;;;;2.45;88.25;100225.63;5078662;28;20209;-81
2022/01/07 10:52:41;;;;;;;5.07;4.67;;;;;;;2.54;88.99;100212.84;5078601;28;20232;-80
2022/01/07 10:55:10;;;;;;;5.30;4.80;;;;;;;2.59;89.02;100224.88;5079234;28;20204;-80
2022/01/07 10:57:39;;;;;;;5.07;4.57;;;;;;;2.48;88.47;100230.78;5078555;28;20201;-81
2022/01/07 11:00:07;;;;;;;4.87;4.33;;;;;;;2.42;88.08;100230.72;5075984;28;20200;-81
2022/01/07 11:02:35;;;;;;;4.80;4.40;;;;;;;2.47;88.83;100229.06;5070065;28;20739;-80
2022/01/07 11:05:01;;;;;;;6.00;4.67;;;;;;;2.55;88.89;100235.16;5103384;22;20611;-83
2022/01/07 11:07:28;;;;;;;5.33;4.83;;;;;;;2.56;88.99;100227.47;5092089;28;20248;-83
2022/01/07 11:09:56;;;;;;;5.13;4.63;;;;;;;2.51;88.59;100242.00;5099260;28;20303;-81
2022/01/07 11:12:25;;;;;;;6.23;5.63;;;;;;;2.72;90.51;100220.75;5100297;28;20291;-84
2022/01/07 11:14:51;;;;;;;5.23;4.73;;;;;;;2.71;89.90;100218.13;5101035;28;20703;-84
2022/01/07 11:17:21;;;;;;;4.70;4.27;;;;;;;2.57;88.30;100231.75;5100454;28;20224;-84
2022/01/07 11:19:53;;;;;;;6.47;5.10;;;;;;;2.65;88.53;100242.13;5099618;28;20208;-84
2022/01/07 11:22:22;;;;;;;16.57;9.57;;;;;;;3.01;91.59;100167.69;5097985;28;20204;-81
2022/01/07 11:24:53;;;;;;;6.10;4.97;;;;;;;2.98;89.07;100204.63;5099534;28;20694;-82
2022/01/07 11:27:22;;;;;;;4.93;4.47;;;;;;;3.11;88.92;100226.22;5098434;28;20239;-83
2022/01/07 11:30:57;;;;;;;6.30;4.10;;;;;;;3.28;90.27;100203.13;5097336;28;20268;-83
2022/01/07 11:33:23;;;;;;;4.97;4.30;;;;;;;3.39;88.83;100216.97;5090747;28;20231;-83
2022/01/07 11:36:10;;;;;;;4.23;3.83;;;;;;;3.56;89.09;100225.66;5098915;28;20228;-81
2022/01/07 11:38:41;;;;;;;4.53;4.10;;;;;;;3.57;87.10;100262.69;5094298;28;20242;-85
2022/01/07 11:41:11;;;;;;;5.87;3.97;;;;;;;3.45;84.86;100314.19;5098325;28;20206;-84
2022/01/07 11:43:40;;;;;;;4.13;3.57;;;;;;;3.48;85.44;100322.81;5098387;28;20223;-83